createdAt,value
2022-08-16T00:02:25.416Z,19.80
2022-08-16T00:04:54.067Z,19.80
2022-08-16T00:07:29.111Z,19.71
2022-08-16T00:09:58.024Z,19.72
2022-08-16T00:12:27.429Z,19.69
2022-08-16T00:14:57.217Z,19.65
2022-08-16T00:17:28.129Z,19.62
2022-08-16T00:19:57.543Z,19.62
2022-08-16T00:22:27.790Z,19.62
2022-08-16T00:24:56.396Z,19.68
2022-08-16T00:27:24.936Z,19.68
2022-08-16T00:30:00.492Z,19.72
2022-08-16T00:32:38.765Z,19.70
2022-08-16T00:35:14.928Z,19.69
2022-08-16T00:37:58.920Z,19.73
2022-08-16T00:40:43.926Z,19.77
2022-08-16T00:43:22.760Z,19.71
2022-08-16T00:46:00.075Z,19.68
2022-08-16T00:48:44.156Z,19.61
2022-08-16T00:51:15.940Z,19.56
2022-08-16T00:53:46.471Z,19.46
2022-08-16T00:56:56.494Z,19.43
2022-08-16T00:59:11.321Z,19.35
2022-08-16T01:01:45.089Z,19.35
2022-08-16T01:04:28.877Z,19.37
2022-08-16T01:07:01.722Z,19.32
2022-08-16T01:09:33.821Z,19.31
2022-08-16T01:12:03.216Z,19.30
2022-08-16T01:14:36.467Z,19.27
2022-08-16T01:17:08.325Z,19.27
2022-08-16T01:19:42.870Z,19.16
2022-08-16T01:22:47.408Z,19.21
2022-08-16T01:25:13.841Z,19.21
2022-08-16T01:27:46.197Z,19.14
2022-08-16T01:30:20.261Z,19.10
2022-08-16T01:32:56.387Z,19.07
2022-08-16T01:35:37.103Z,18.94
2022-08-16T01:38:20.811Z,18.88
2022-08-16T01:40:56.455Z,18.84
2022-08-16T01:43:26.805Z,18.82
2022-08-16T01:45:57.746Z,18.80
2022-08-16T01:48:30.382Z,18.84
2022-08-16T01:51:08.926Z,18.82
2022-08-16T01:53:45.310Z,18.80
2022-08-16T01:56:31.268Z,18.79
2022-08-16T01:59:02.959Z,18.79
2022-08-16T02:01:34.016Z,18.81
2022-08-16T02:04:10.977Z,18.82
2022-08-16T02:06:46.921Z,18.79
2022-08-16T02:09:28.734Z,18.73
2022-08-16T02:12:49.794Z,18.73
2022-08-16T02:14:56.656Z,18.71
2022-08-16T02:17:28.395Z,18.68
2022-08-16T02:20:00.083Z,18.69
2022-08-16T02:22:34.252Z,18.72
2022-08-16T02:25:10.033Z,18.64
2022-08-16T02:27:42.344Z,18.71
2022-08-16T02:30:36.747Z,18.56
2022-08-16T02:33:15.457Z,18.57
2022-08-16T02:35:54.397Z,18.52
2022-08-16T02:38:33.129Z,18.58
2022-08-16T02:41:09.581Z,18.63
2022-08-16T02:43:41.283Z,18.64
2022-08-16T02:46:11.115Z,18.61
2022-08-16T02:48:47.430Z,18.69
2022-08-16T02:51:19.345Z,18.62
2022-08-16T02:53:53.121Z,18.61
2022-08-16T02:56:24.212Z,18.58
2022-08-16T02:59:03.035Z,18.58
2022-08-16T03:01:41.657Z,18.56
2022-08-16T03:04:50.657Z,18.48
2022-08-16T03:07:27.766Z,18.44
2022-08-16T03:10:00.485Z,18.42
2022-08-16T03:12:37.899Z,18.49
2022-08-16T03:15:24.423Z,18.53
2022-08-16T03:17:54.281Z,18.49
2022-08-16T03:20:32.185Z,18.50
2022-08-16T03:23:02.239Z,18.43
2022-08-16T03:25:41.031Z,18.44
2022-08-16T03:28:13.269Z,18.40
2022-08-16T03:30:43.264Z,18.35
2022-08-16T03:33:13.344Z,18.37
2022-08-16T03:35:57.086Z,18.32
2022-08-16T03:38:32.760Z,18.26
2022-08-16T03:41:14.409Z,18.17
2022-08-16T03:43:56.025Z,18.20
2022-08-16T03:46:47.883Z,18.15
2022-08-16T03:49:37.053Z,18.12
2022-08-16T03:52:08.409Z,18.10
2022-08-16T03:54:38.420Z,18.07
2022-08-16T03:57:22.570Z,18.00
2022-08-16T03:59:52.754Z,17.94
2022-08-16T04:02:31.765Z,17.90
2022-08-16T04:05:08.475Z,17.96
2022-08-16T04:07:37.440Z,17.91
2022-08-16T04:10:36.233Z,17.90
2022-08-16T04:13:04.083Z,17.92
2022-08-16T04:15:34.504Z,17.81
2022-08-16T04:18:16.339Z,17.84
2022-08-16T04:20:45.646Z,17.85
2022-08-16T04:23:16.150Z,17.92
2022-08-16T04:25:47.112Z,18.00
2022-08-16T04:28:51.438Z,18.04
2022-08-16T04:31:07.334Z,18.09
2022-08-16T04:33:50.565Z,17.99
2022-08-16T04:36:22.280Z,18.00
2022-08-16T04:38:52.716Z,18.03
2022-08-16T04:41:32.784Z,18.06
2022-08-16T04:44:32.831Z,18.09
2022-08-16T04:47:00.862Z,18.09
2022-08-16T04:49:43.939Z,18.09
2022-08-16T04:52:33.936Z,18.06
2022-08-16T04:55:12.078Z,18.15
2022-08-16T04:57:43.654Z,18.18
2022-08-16T05:00:31.235Z,18.25
2022-08-16T05:03:13.973Z,18.28
2022-08-16T05:05:59.216Z,18.39
2022-08-16T05:08:34.562Z,18.49
2022-08-16T05:11:13.992Z,18.63
2022-08-16T05:13:46.530Z,18.71
2022-08-16T05:16:25.150Z,18.81
2022-08-16T05:19:02.971Z,18.81
2022-08-16T05:21:38.857Z,18.89
2022-08-16T05:24:10.808Z,18.72
2022-08-16T05:26:49.546Z,18.72
2022-08-16T05:29:20.722Z,18.69
2022-08-16T05:32:05.630Z,18.56
2022-08-16T05:34:56.851Z,18.57
2022-08-16T05:37:26.795Z,18.56
2022-08-16T05:40:10.630Z,18.59
2022-08-16T05:42:47.611Z,18.55
2022-08-16T05:45:21.438Z,18.52
2022-08-16T05:47:59.465Z,18.56
2022-08-16T05:50:33.826Z,18.62
2022-08-16T05:53:05.320Z,18.73
2022-08-16T05:55:40.580Z,18.93
2022-08-16T05:58:28.972Z,19.07
2022-08-16T06:01:02.733Z,19.23
2022-08-16T06:03:34.382Z,19.27
2022-08-16T06:06:08.533Z,19.44
2022-08-16T06:08:44.720Z,19.50
2022-08-16T06:11:18.983Z,19.41
2022-08-16T06:13:55.378Z,19.45
2022-08-16T06:16:40.854Z,19.51
2022-08-16T06:19:11.011Z,19.56
2022-08-16T06:21:44.892Z,19.71
2022-08-16T06:24:54.572Z,19.82
2022-08-16T06:27:06.513Z,19.94
2022-08-16T06:29:36.255Z,20.11
2022-08-16T06:32:05.074Z,20.05
2022-08-16T06:34:56.011Z,19.96
2022-08-16T06:37:27.317Z,20.16
2022-08-16T06:40:12.947Z,20.55
2022-08-16T06:42:53.977Z,20.85
2022-08-16T06:45:38.001Z,21.01
2022-08-16T06:48:18.767Z,20.92
2022-08-16T06:50:52.006Z,20.95
2022-08-16T06:53:21.397Z,20.91
2022-08-16T06:56:04.164Z,21.09
2022-08-16T06:58:45.052Z,21.34
2022-08-16T07:01:20.127Z,21.30
2022-08-16T07:03:57.336Z,21.30
2022-08-16T07:06:31.874Z,21.36
2022-08-16T07:09:09.676Z,21.39
2022-08-16T07:11:45.747Z,21.36
2022-08-16T07:14:23.722Z,21.38
2022-08-16T07:16:58.332Z,21.49
2022-08-16T07:20:02.579Z,21.69
2022-08-16T07:22:38.829Z,21.80
2022-08-16T07:25:14.497Z,21.81
2022-08-16T07:27:46.998Z,21.97
2022-08-16T07:30:38.542Z,22.06
2022-08-16T07:33:10.423Z,22.21
2022-08-16T07:35:49.791Z,21.98
2022-08-16T07:38:33.586Z,22.14
2022-08-16T07:41:09.626Z,22.34
2022-08-16T07:43:43.361Z,22.50
2022-08-16T07:46:37.784Z,22.66
2022-08-16T07:49:11.469Z,22.69
2022-08-16T07:51:42.458Z,22.92
2022-08-16T07:54:20.987Z,22.65
2022-08-16T07:56:55.765Z,22.40
2022-08-16T07:59:42.763Z,22.51
2022-08-16T08:02:20.377Z,22.51
2022-08-16T08:04:55.619Z,22.50
2022-08-16T08:07:27.526Z,22.81
2022-08-16T08:09:57.747Z,23.01
2022-08-16T08:12:32.182Z,23.12
2022-08-16T08:15:11.307Z,23.18
2022-08-16T08:17:45.346Z,22.96
2022-08-16T08:20:26.612Z,23.22
2022-08-16T08:23:01.654Z,23.43
2022-08-16T08:25:53.791Z,23.35
2022-08-16T08:28:27.522Z,23.11
2022-08-16T08:31:11.751Z,23.25
2022-08-16T08:33:47.548Z,23.54
2022-08-16T08:36:33.423Z,23.57
2022-08-16T08:39:12.665Z,23.59
2022-08-16T08:41:42.507Z,23.56
2022-08-16T08:44:27.803Z,23.75
2022-08-16T08:47:09.362Z,23.99
2022-08-16T08:49:46.790Z,24.08
2022-08-16T08:52:34.603Z,24.13
2022-08-16T08:55:19.555Z,24.41
2022-08-16T08:57:48.356Z,24.86
2022-08-16T09:00:50.194Z,25.46
2022-08-16T09:03:25.237Z,25.20
2022-08-16T09:05:57.031Z,25.21
2022-08-16T09:08:26.622Z,25.21
2022-08-16T09:11:03.141Z,25.01
2022-08-16T09:13:34.119Z,25.36
2022-08-16T09:16:06.670Z,25.19
2022-08-16T09:18:42.607Z,25.18
2022-08-16T09:21:11.831Z,25.08
2022-08-16T09:23:41.023Z,24.77
2022-08-16T09:26:42.992Z,25.12
2022-08-16T09:29:15.608Z,25.20
2022-08-16T09:31:47.282Z,25.05
2022-08-16T09:34:23.119Z,25.48
2022-08-16T09:36:53.912Z,25.52
2022-08-16T09:39:23.186Z,25.74
2022-08-16T09:41:54.360Z,25.93
2022-08-16T09:45:11.553Z,25.88
2022-08-16T09:47:13.325Z,26.09
2022-08-16T09:49:42.942Z,25.63
2022-08-16T09:52:22.289Z,25.64
2022-08-16T09:54:50.774Z,26.23
2022-08-16T09:57:19.115Z,26.64
2022-08-16T09:59:56.248Z,26.68
2022-08-16T10:02:26.945Z,26.72
2022-08-16T10:04:58.822Z,26.12
2022-08-16T10:07:44.032Z,26.08
2022-08-16T10:10:19.087Z,25.93
2022-08-16T10:13:14.295Z,25.73
2022-08-16T10:15:53.397Z,25.65
2022-08-16T10:19:00.208Z,25.37
2022-08-16T10:21:16.475Z,25.37
2022-08-16T10:23:45.003Z,25.60
2022-08-16T10:27:00.649Z,26.22
2022-08-16T10:29:04.833Z,26.63
2022-08-16T10:31:44.171Z,26.66
2022-08-16T10:34:31.922Z,26.92
2022-08-16T10:37:03.017Z,27.25
2022-08-16T10:39:40.588Z,27.41
2022-08-16T10:42:13.363Z,27.53
2022-08-16T10:44:42.292Z,27.35
2022-08-16T10:47:11.699Z,27.19
2022-08-16T10:49:40.237Z,26.89
2022-08-16T10:52:19.070Z,26.81
2022-08-16T10:57:36.657Z,26.80
2022-08-16T11:00:21.008Z,26.70
2022-08-16T11:02:58.817Z,26.57
2022-08-16T11:08:35.111Z,26.33
2022-08-16T11:11:12.879Z,26.28
2022-08-16T11:14:06.355Z,25.98
2022-08-16T11:19:26.211Z,26.20
2022-08-16T11:22:38.705Z,26.21
2022-08-16T11:25:11.790Z,26.96
2022-08-16T11:27:40.460Z,26.76
2022-08-16T11:30:12.206Z,27.28
2022-08-16T11:32:49.405Z,27.57
2022-08-16T11:35:43.401Z,28.17
2022-08-16T11:38:46.394Z,28.79
2022-08-16T11:41:09.881Z,28.58
2022-08-16T11:43:41.730Z,28.39
2022-08-16T11:46:43.821Z,29.17
2022-08-16T11:49:09.868Z,29.00
2022-08-16T11:51:42.518Z,29.09
2022-08-16T11:54:21.781Z,28.82
2022-08-16T11:56:57.485Z,28.58
2022-08-16T11:59:29.616Z,28.33
2022-08-16T12:02:31.367Z,28.26
2022-08-16T12:04:51.773Z,27.81
2022-08-16T12:07:23.917Z,28.00
2022-08-16T12:09:53.463Z,27.87
2022-08-16T12:12:24.917Z,28.05
2022-08-16T12:15:00.125Z,27.95
2022-08-16T12:17:31.482Z,28.55
2022-08-16T12:20:00.791Z,28.72
2022-08-16T12:22:30.006Z,28.71
2022-08-16T12:25:02.605Z,28.18
2022-08-16T12:27:35.260Z,28.19
2022-08-16T12:30:21.795Z,28.52
2022-08-16T12:32:56.507Z,28.89
2022-08-16T12:35:31.300Z,28.33
2022-08-16T12:38:38.257Z,28.38
2022-08-16T12:40:57.080Z,28.38
2022-08-16T12:43:31.453Z,28.38
2022-08-16T12:46:02.282Z,28.21
2022-08-16T12:48:51.169Z,28.47
2022-08-16T12:51:32.874Z,28.58
2022-08-16T12:54:17.339Z,28.14
2022-08-16T12:56:47.029Z,28.38
2022-08-16T12:59:20.166Z,28.78
2022-08-16T13:01:58.168Z,29.08
2022-08-16T13:04:33.228Z,29.04
2022-08-16T13:09:42.838Z,30.02
2022-08-16T13:12:20.050Z,29.88
2022-08-16T13:14:52.036Z,29.62
2022-08-16T13:17:26.359Z,29.95
2022-08-16T13:20:13.642Z,30.04
2022-08-16T13:22:45.510Z,30.09
2022-08-16T13:25:21.014Z,29.79
2022-08-16T13:28:02.019Z,29.16
2022-08-16T13:30:41.900Z,29.09
2022-08-16T13:33:17.577Z,28.86
2022-08-16T13:35:55.800Z,28.57
2022-08-16T13:38:36.831Z,28.59
2022-08-16T13:41:08.414Z,28.45
2022-08-16T13:43:43.842Z,28.67
2022-08-16T13:46:27.020Z,28.48
2022-08-16T13:48:55.920Z,28.47
2022-08-16T13:51:28.961Z,28.55
2022-08-16T13:54:03.843Z,29.00
2022-08-16T13:56:37.482Z,28.92
2022-08-16T13:59:14.422Z,28.95
2022-08-16T14:01:54.941Z,29.02
2022-08-16T14:04:35.404Z,28.89
2022-08-16T14:07:07.789Z,28.71
2022-08-16T14:09:37.377Z,28.61
2022-08-16T14:12:19.969Z,28.70
2022-08-16T14:14:57.329Z,28.30
2022-08-16T14:17:28.960Z,28.47
2022-08-16T14:20:00.176Z,28.64
2022-08-16T14:22:35.585Z,29.15
2022-08-16T14:25:10.242Z,29.36
2022-08-16T14:27:42.244Z,30.15
2022-08-16T14:30:15.613Z,29.80
2022-08-16T14:32:49.916Z,30.05
2022-08-16T14:35:36.379Z,29.83
2022-08-16T14:38:06.148Z,29.83
2022-08-16T14:40:35.558Z,30.61
2022-08-16T14:43:05.671Z,30.85
2022-08-16T14:45:36.915Z,30.70
2022-08-16T14:48:09.197Z,30.17
2022-08-16T14:50:37.758Z,29.63
2022-08-16T14:53:10.353Z,29.68
2022-08-16T14:55:41.251Z,29.26
2022-08-16T14:58:10.421Z,29.08
2022-08-16T15:00:50.306Z,28.50
2022-08-16T15:03:23.714Z,28.12
2022-08-16T15:05:54.273Z,27.76
2022-08-16T15:08:36.275Z,27.82
2022-08-16T15:11:06.032Z,27.78
2022-08-16T15:13:36.362Z,27.76
2022-08-16T15:16:07.815Z,27.82
2022-08-16T15:18:39.267Z,27.93
2022-08-16T15:21:08.723Z,27.82
2022-08-16T15:23:40.456Z,27.90
2022-08-16T15:26:18.810Z,27.97
2022-08-16T15:29:00.021Z,28.03
2022-08-16T15:31:28.580Z,27.82
2022-08-16T15:33:58.526Z,27.79
2022-08-16T15:36:29.247Z,27.71
2022-08-16T15:39:30.410Z,27.60
2022-08-16T15:42:06.720Z,27.55
2022-08-16T15:44:52.016Z,27.57
2022-08-16T15:47:27.026Z,27.47
2022-08-16T15:49:57.925Z,27.35
2022-08-16T15:52:30.420Z,27.22
2022-08-16T15:55:13.385Z,27.17
2022-08-16T15:57:51.314Z,27.04
2022-08-16T16:00:21.182Z,27.05
2022-08-16T16:02:50.086Z,26.98
2022-08-16T16:05:21.402Z,26.97
2022-08-16T16:07:56.492Z,26.92
2022-08-16T16:10:39.421Z,26.72
2022-08-16T16:13:11.065Z,26.66
2022-08-16T16:15:43.228Z,26.62
2022-08-16T16:18:15.245Z,26.73
2022-08-16T16:20:48.167Z,26.86
2022-08-16T16:23:23.708Z,26.81
2022-08-16T16:25:52.651Z,26.86
2022-08-16T16:29:05.246Z,26.83
2022-08-16T16:31:17.065Z,26.80
2022-08-16T16:33:51.304Z,26.77
2022-08-16T16:36:29.397Z,26.81
2022-08-16T16:38:58.432Z,26.95
2022-08-16T16:41:28.290Z,27.00
2022-08-16T16:44:02.888Z,26.77
2022-08-16T16:46:42.803Z,26.65
2022-08-16T16:49:14.639Z,26.71
2022-08-16T16:51:49.641Z,26.57
2022-08-16T16:54:27.843Z,26.46
2022-08-16T16:56:58.299Z,26.51
2022-08-16T16:59:28.129Z,26.42
2022-08-16T17:02:01.390Z,26.40
2022-08-16T17:04:47.188Z,26.55
2022-08-16T17:07:17.523Z,26.63
2022-08-16T17:09:48.922Z,26.58
2022-08-16T17:12:24.535Z,26.97
2022-08-16T17:15:07.619Z,26.91
2022-08-16T17:18:00.098Z,26.39
2022-08-16T17:20:30.185Z,26.25
2022-08-16T17:23:02.595Z,26.12
2022-08-16T17:25:36.397Z,26.17
2022-08-16T17:28:57.575Z,25.91
2022-08-16T17:30:54.638Z,25.81
2022-08-16T17:33:28.518Z,25.66
2022-08-16T17:36:08.743Z,25.62
2022-08-16T17:38:43.880Z,25.58
2022-08-16T17:41:13.413Z,25.58
2022-08-16T17:43:48.575Z,25.53
2022-08-16T17:46:41.450Z,25.48
2022-08-16T17:49:11.560Z,25.35
2022-08-16T17:51:40.034Z,25.35
2022-08-16T17:54:29.745Z,25.15
2022-08-16T17:57:01.639Z,25.01
2022-08-16T17:59:40.570Z,24.98
2022-08-16T18:02:43.104Z,24.95
2022-08-16T18:04:58.301Z,24.98
2022-08-16T18:07:32.295Z,25.00
2022-08-16T18:10:05.729Z,24.87
2022-08-16T18:12:50.855Z,24.85
2022-08-16T18:15:25.228Z,24.84
2022-08-16T18:17:54.214Z,24.82
2022-08-16T18:20:40.912Z,24.69
2022-08-16T18:23:13.827Z,24.53
2022-08-16T18:25:47.730Z,24.53
2022-08-16T18:28:18.979Z,24.41
2022-08-16T18:30:51.375Z,24.30
2022-08-16T18:33:21.732Z,24.14
2022-08-16T18:35:54.380Z,24.06
2022-08-16T18:38:26.052Z,23.91
2022-08-16T18:40:57.561Z,23.84
2022-08-16T18:44:22.901Z,23.73
2022-08-16T18:46:17.636Z,23.62
2022-08-16T18:48:46.437Z,23.49
2022-08-16T18:51:24.376Z,23.39
2022-08-16T18:53:53.565Z,23.29
2022-08-16T18:56:23.439Z,23.26
2022-08-16T18:59:11.808Z,23.18
2022-08-16T19:01:42.898Z,23.12
2022-08-16T19:04:55.187Z,23.07
2022-08-16T19:07:04.908Z,23.00
2022-08-16T19:09:33.238Z,22.84
2022-08-16T19:12:08.906Z,22.83
2022-08-16T19:14:37.202Z,22.77
2022-08-16T19:17:06.104Z,22.67
2022-08-16T19:19:37.158Z,22.63
2022-08-16T19:22:06.606Z,22.58
2022-08-16T19:24:39.267Z,22.51
2022-08-16T19:27:12.957Z,22.41
2022-08-16T19:29:41.798Z,22.50
2022-08-16T19:32:17.264Z,22.49
2022-08-16T19:34:48.813Z,22.43
2022-08-16T19:37:20.927Z,22.39
2022-08-16T19:39:49.262Z,22.32
2022-08-16T19:42:26.632Z,22.35
2022-08-16T19:44:56.364Z,22.36
2022-08-16T19:47:25.545Z,22.32
2022-08-16T19:49:56.447Z,22.33
2022-08-16T19:52:28.743Z,22.32
2022-08-16T19:55:06.457Z,22.31
2022-08-16T19:57:36.973Z,22.26
2022-08-16T20:00:12.407Z,22.31
2022-08-16T20:02:50.964Z,22.25
2022-08-16T20:05:21.919Z,22.23
2022-08-16T20:07:50.436Z,22.22
2022-08-16T20:10:26.939Z,22.28
2022-08-16T20:13:02.330Z,22.23
2022-08-16T20:15:34.216Z,22.23
2022-08-16T20:18:12.492Z,22.38
2022-08-16T20:20:50.175Z,22.46
2022-08-16T20:23:25.593Z,22.36
2022-08-16T20:25:55.723Z,22.28
2022-08-16T20:28:45.089Z,22.24
2022-08-16T20:31:17.712Z,22.21
2022-08-16T20:33:45.936Z,22.18
2022-08-16T20:36:16.153Z,22.20
2022-08-16T20:38:47.413Z,22.18
2022-08-16T20:41:16.491Z,22.12
2022-08-16T20:43:47.549Z,22.12
2022-08-16T20:46:15.931Z,22.03
2022-08-16T20:48:44.464Z,22.01
2022-08-16T20:51:13.195Z,22.01
2022-08-16T20:53:42.639Z,21.96
2022-08-16T20:56:11.891Z,21.95
2022-08-16T20:58:43.183Z,21.97
2022-08-16T21:01:12.962Z,21.93
2022-08-16T21:03:43.845Z,21.88
2022-08-16T21:06:12.121Z,21.92
2022-08-16T21:08:52.117Z,21.84
2022-08-16T21:11:23.611Z,21.75
2022-08-16T21:13:55.368Z,21.79
2022-08-16T21:16:30.495Z,21.78
2022-08-16T21:19:00.929Z,21.76
2022-08-16T21:21:33.577Z,21.78
2022-08-16T21:24:02.691Z,21.77
2022-08-16T21:26:31.391Z,21.83
2022-08-16T21:28:59.759Z,21.74
2022-08-16T21:31:28.317Z,21.68
2022-08-16T21:33:58.051Z,21.66
2022-08-16T21:36:35.496Z,21.69
2022-08-16T21:39:06.754Z,21.72
2022-08-16T21:41:35.644Z,21.65
2022-08-16T21:44:07.921Z,21.64
2022-08-16T21:46:38.283Z,21.70
2022-08-16T21:49:07.953Z,21.79
2022-08-16T21:51:36.303Z,21.87
2022-08-16T21:54:07.181Z,21.95
2022-08-16T21:56:35.545Z,22.05
2022-08-16T21:59:10.986Z,22.09
2022-08-16T22:01:41.736Z,22.13
2022-08-16T22:04:37.757Z,22.14
2022-08-16T22:07:04.778Z,22.16
2022-08-16T22:09:33.315Z,22.20
2022-08-16T22:12:01.697Z,22.22
2022-08-16T22:14:31.291Z,22.27
2022-08-16T22:16:59.650Z,22.24
2022-08-16T22:19:32.108Z,22.26
2022-08-16T22:22:01.705Z,22.34
2022-08-16T22:24:30.428Z,22.37
2022-08-16T22:26:59.192Z,22.36
2022-08-16T22:29:32.765Z,22.34
2022-08-16T22:32:03.202Z,22.35
2022-08-16T22:34:33.421Z,22.37
2022-08-16T22:37:02.287Z,22.43
2022-08-16T22:39:33.677Z,22.53
2022-08-16T22:42:08.246Z,22.55
2022-08-16T22:44:37.865Z,22.64
2022-08-16T22:47:06.336Z,22.67
2022-08-16T22:49:36.108Z,22.67
2022-08-16T22:52:09.470Z,22.75
2022-08-16T22:54:48.403Z,22.71
2022-08-16T22:57:20.209Z,22.65
2022-08-16T22:59:52.686Z,22.46
2022-08-16T23:02:24.040Z,22.22
2022-08-16T23:04:58.247Z,22.10
2022-08-16T23:07:26.623Z,22.02
2022-08-16T23:09:55.179Z,21.87
2022-08-16T23:12:29.125Z,21.83
2022-08-16T23:15:04.353Z,21.76
2022-08-16T23:17:33.926Z,21.75
2022-08-16T23:20:04.049Z,21.72
2022-08-16T23:23:20.796Z,21.78
2022-08-16T23:25:38.023Z,21.84
2022-08-16T23:28:10.910Z,21.84
2022-08-16T23:30:41.615Z,21.80
2022-08-16T23:33:18.379Z,21.75
2022-08-16T23:35:50.899Z,21.61
2022-08-16T23:38:37.428Z,21.55
2022-08-16T23:41:12.707Z,21.47
2022-08-16T23:43:43.679Z,21.40
2022-08-16T23:46:16.911Z,21.30
2022-08-16T23:49:44.916Z,21.25
2022-08-16T23:51:37.233Z,21.33
2022-08-16T23:54:08.384Z,21.38
2022-08-16T23:56:46.434Z,21.38
2022-08-16T23:59:14.803Z,21.39
